CheckWX is a tool to help pilots better visualize weather data.  It is not intended as a substitute for an official pre-flight weather briefing.

13:05:11 UTC

CYYJ METAR
Victoria International Airport
Victoria, Canada
Current

1 hour ago

CYYJ 211200Z 25004KT 20SM FEW220 SCT250 M01/M01 A3021 RMK CI2CI2 SLP233
Observed
Feb-21 @ 12:00 UTC
Wind
  • 250° at 4 KTS
Visibility
20 SM
Flight Rules
VFR
Cloud Levels
  • Few at 22,000' AGL
  • Scattered at 25,000' AGL
Temperature
-1°C / 30°F
Dewpoint
-1°C / 30°F
Humidity
100%
Altimeter
30.21" Hg
Pressure
1023.02 hPa
Previous

2 hours ago

CYYJ 211100Z 23005KT 20SM SKC M01/M01 A3023 RMK SLP238
Observed
Feb-21 @ 11:00 UTC
Wind
  • 230° at 5 KTS
Visibility
20 SM
Flight Rules
VFR
Cloud Levels
  • Clear skies
Temperature
-1°C / 30°F
Dewpoint
-1°C / 30°F
Humidity
100%
Altimeter
30.23" Hg
Pressure
1023.72 hPa
Previous

3 hours ago

CYYJ 211000Z 26004KT 20SM SKC M00/M01 A3023 RMK SLP240
Observed
Feb-21 @ 10:00 UTC
Wind
  • 260° at 4 KTS
Visibility
20 SM
Flight Rules
VFR
Cloud Levels
  • Clear skies
Temperature
C / 32°F
Dewpoint
-1°C / 30°F
Humidity
93%
Altimeter
30.23" Hg
Pressure
1023.72 hPa